createdAt,value
2022-11-26T00:01:21.851Z,7.10
2022-11-26T00:03:49.637Z,7.10
2022-11-26T00:06:25.754Z,7.10
2022-11-26T00:08:52.813Z,7.10
2022-11-26T00:11:19.652Z,7.10
2022-11-26T00:13:48.838Z,7.10
2022-11-26T00:16:18.142Z,7.20
2022-11-26T00:18:44.842Z,7.20
2022-11-26T00:21:25.022Z,7.30
2022-11-26T00:24:26.971Z,7.40
2022-11-26T00:26:57.667Z,7.30
2022-11-26T00:29:24.392Z,7.30
2022-11-26T00:31:51.171Z,7.20
2022-11-26T00:34:20.298Z,7.20
2022-11-26T00:36:49.558Z,7.20
2022-11-26T00:39:22.540Z,7.20
2022-11-26T00:41:51.656Z,7.20
2022-11-26T00:44:21.339Z,7.10
2022-11-26T00:46:48.652Z,7.10
2022-11-26T00:49:16.478Z,7.10
2022-11-26T00:51:43.742Z,7.00
2022-11-26T00:54:14.118Z,6.90
2022-11-26T00:56:41.056Z,6.90
2022-11-26T00:59:14.605Z,6.90
2022-11-26T01:01:41.618Z,6.90
2022-11-26T01:04:08.711Z,6.80
2022-11-26T01:06:38.859Z,6.90
2022-11-26T01:09:13.338Z,6.80
2022-11-26T01:11:39.994Z,6.80
2022-11-26T01:14:07.016Z,6.80
2022-11-26T01:16:39.208Z,6.80
2022-11-26T01:19:06.430Z,6.70
2022-11-26T01:21:35.522Z,6.70
2022-11-26T01:24:02.265Z,6.70
2022-11-26T01:26:34.209Z,6.80
2022-11-26T01:29:00.880Z,6.80
2022-11-26T01:31:30.342Z,6.80
2022-11-26T01:33:57.799Z,6.90
2022-11-26T01:36:36.435Z,6.90
2022-11-26T01:39:14.636Z,6.90
2022-11-26T01:41:56.681Z,6.90
2022-11-26T01:44:29.689Z,6.90
2022-11-26T01:46:57.107Z,6.90
2022-11-26T01:49:23.781Z,6.90
2022-11-26T01:52:06.601Z,6.90
2022-11-26T01:54:36.780Z,6.70
2022-11-26T01:57:29.694Z,6.70
2022-11-26T02:00:01.459Z,6.70
2022-11-26T02:02:30.607Z,6.70
2022-11-26T02:05:18.310Z,6.80
2022-11-26T02:07:45.767Z,6.70
2022-11-26T02:10:14.087Z,6.60
2022-11-26T02:12:43.823Z,6.60
2022-11-26T02:15:12.336Z,6.60
2022-11-26T02:17:46.312Z,6.60
2022-11-26T02:20:47.715Z,6.60
2022-11-26T02:23:20.414Z,6.60
2022-11-26T02:26:01.215Z,6.50
2022-11-26T02:28:42.869Z,6.40
2022-11-26T02:31:13.739Z,6.40
2022-11-26T02:34:00.476Z,6.40
2022-11-26T02:36:54.448Z,6.40
2022-11-26T02:39:24.623Z,6.40
2022-11-26T02:41:57.054Z,6.40
2022-11-26T02:44:37.324Z,6.40
2022-11-26T02:47:10.553Z,6.40
2022-11-26T02:49:39.176Z,6.30
2022-11-26T02:52:08.402Z,6.40
2022-11-26T02:54:39.262Z,6.40
2022-11-26T02:57:09.014Z,6.40
2022-11-26T02:59:37.274Z,6.30
2022-11-26T03:02:16.125Z,6.20
2022-11-26T03:04:47.690Z,6.20
2022-11-26T03:07:15.039Z,6.20
2022-11-26T03:09:58.553Z,6.20
2022-11-26T03:12:25.614Z,6.20
2022-11-26T03:14:52.534Z,6.20
2022-11-26T03:17:19.849Z,6.20
2022-11-26T03:19:46.950Z,6.10
2022-11-26T03:22:14.564Z,6.10
2022-11-26T03:24:41.643Z,6.00
2022-11-26T03:27:08.310Z,6.10
2022-11-26T03:29:34.980Z,6.10
2022-11-26T03:32:01.892Z,6.10
2022-11-26T03:34:28.582Z,6.00
2022-11-26T03:36:55.272Z,6.00
2022-11-26T03:39:21.979Z,6.00
2022-11-26T03:41:51.113Z,6.00
2022-11-26T03:44:17.913Z,6.10
2022-11-26T03:46:47.055Z,6.00
2022-11-26T03:49:15.969Z,6.00
2022-11-26T03:51:44.944Z,6.00
2022-11-26T03:54:11.853Z,5.90
2022-11-26T03:56:43.259Z,5.90
2022-11-26T03:59:12.552Z,5.80
2022-11-26T04:01:39.992Z,5.80
2022-11-26T04:04:09.196Z,5.80
2022-11-26T04:06:38.274Z,5.70
2022-11-26T04:09:05.101Z,5.70
2022-11-26T04:11:31.812Z,5.70
2022-11-26T04:14:00.732Z,5.70
2022-11-26T04:16:27.489Z,5.70
2022-11-26T04:18:54.295Z,5.70
2022-11-26T04:21:21.004Z,5.70
2022-11-26T04:23:48.587Z,5.60
2022-11-26T04:26:15.367Z,5.70
2022-11-26T04:28:44.462Z,5.70
2022-11-26T04:31:13.817Z,5.70
2022-11-26T04:33:40.562Z,5.60
2022-11-26T04:36:08.088Z,5.60
2022-11-26T04:38:37.138Z,5.60
2022-11-26T04:41:03.912Z,5.60
2022-11-26T04:43:30.573Z,5.70
2022-11-26T04:45:59.854Z,5.70
2022-11-26T04:48:27.389Z,5.70
2022-11-26T04:50:54.179Z,5.60
2022-11-26T04:53:23.084Z,5.70
2022-11-26T04:55:50.891Z,5.60
2022-11-26T04:58:18.957Z,5.50
2022-11-26T05:00:50.644Z,5.50
2022-11-26T05:03:18.516Z,5.60
2022-11-26T05:05:45.324Z,5.60
2022-11-26T05:08:11.989Z,5.60
2022-11-26T05:10:38.712Z,5.70
2022-11-26T05:13:07.927Z,5.60
2022-11-26T05:15:37.367Z,5.60
2022-11-26T05:18:04.165Z,5.50
2022-11-26T05:20:31.351Z,5.50
2022-11-26T05:22:58.120Z,5.50
2022-11-26T05:25:27.210Z,5.50
2022-11-26T05:27:56.457Z,5.50
2022-11-26T05:30:25.592Z,5.50
2022-11-26T05:32:52.310Z,5.50
2022-11-26T05:35:18.956Z,5.50
2022-11-26T05:37:47.981Z,5.50
2022-11-26T05:40:14.939Z,4.40
2022-11-26T05:42:41.773Z,5.30
2022-11-26T05:45:09.034Z,5.30
2022-11-26T05:47:35.766Z,5.40
2022-11-26T05:50:04.966Z,5.40
2022-11-26T05:52:31.756Z,5.40
2022-11-26T05:55:01.017Z,5.40
2022-11-26T05:57:27.682Z,5.30
2022-11-26T05:59:56.799Z,5.30
2022-11-26T06:02:25.829Z,5.30
2022-11-26T06:04:52.620Z,5.40
2022-11-26T06:07:19.319Z,5.30
2022-11-26T06:09:46.039Z,5.30
2022-11-26T06:12:12.766Z,5.30
2022-11-26T06:14:43.101Z,5.20
2022-11-26T06:17:12.570Z,5.20
2022-11-26T06:19:39.796Z,5.20
2022-11-26T06:22:06.827Z,5.30
2022-11-26T06:24:33.661Z,5.30
2022-11-26T06:27:00.462Z,5.40
2022-11-26T06:29:32.123Z,5.40
2022-11-26T06:31:58.937Z,5.40
2022-11-26T06:34:25.697Z,5.40
2022-11-26T06:36:52.629Z,5.30
2022-11-26T06:39:19.336Z,5.30
2022-11-26T06:41:48.246Z,5.30
2022-11-26T06:44:15.042Z,5.30
2022-11-26T06:46:43.891Z,5.30
2022-11-26T06:49:10.822Z,5.20
2022-11-26T06:51:37.517Z,5.20
2022-11-26T06:54:04.251Z,5.20
2022-11-26T06:56:30.889Z,5.20
2022-11-26T06:58:57.676Z,5.20
2022-11-26T07:01:26.377Z,5.20
2022-11-26T07:03:54.001Z,5.20
2022-11-26T07:06:22.108Z,5.10
2022-11-26T07:08:49.702Z,5.20
2022-11-26T07:11:17.418Z,5.20
2022-11-26T07:13:44.329Z,5.20
2022-11-26T07:16:13.707Z,5.30
2022-11-26T07:18:42.853Z,5.30
2022-11-26T07:21:13.554Z,5.20
2022-11-26T07:23:40.928Z,5.30
2022-11-26T07:26:09.053Z,5.30
2022-11-26T07:28:36.225Z,5.20
2022-11-26T07:31:11.653Z,5.20
2022-11-26T07:33:41.613Z,5.30
2022-11-26T07:36:20.883Z,5.40
2022-11-26T07:38:50.235Z,5.40
2022-11-26T07:41:21.445Z,5.50
2022-11-26T07:43:48.292Z,5.50
2022-11-26T07:46:19.692Z,5.60
2022-11-26T07:48:46.637Z,5.70
2022-11-26T07:51:31.687Z,5.70
2022-11-26T07:54:07.092Z,5.80
2022-11-26T07:56:34.495Z,5.90
2022-11-26T07:59:04.184Z,5.90
2022-11-26T08:01:33.446Z,5.90
2022-11-26T08:04:03.401Z,5.90
2022-11-26T08:06:32.958Z,5.90
2022-11-26T08:09:00.708Z,5.80
2022-11-26T08:11:30.507Z,5.90
2022-11-26T08:14:03.449Z,5.90
2022-11-26T08:16:30.338Z,5.90
2022-11-26T08:18:58.997Z,5.90
2022-11-26T08:21:28.518Z,5.90
2022-11-26T08:23:56.037Z,6.00
2022-11-26T08:26:30.685Z,5.90
2022-11-26T08:29:05.170Z,6.00
2022-11-26T08:31:34.938Z,6.00
2022-11-26T08:34:03.333Z,6.10
2022-11-26T08:36:33.521Z,6.20
2022-11-26T08:39:00.904Z,6.20
2022-11-26T08:41:30.244Z,6.30
2022-11-26T08:44:06.532Z,6.30
2022-11-26T08:46:33.661Z,6.30
2022-11-26T08:49:00.412Z,6.30
2022-11-26T08:51:27.133Z,6.30
2022-11-26T08:53:53.867Z,6.30
2022-11-26T08:56:20.652Z,6.40
2022-11-26T08:58:48.894Z,6.40
2022-11-26T09:01:16.112Z,6.40
2022-11-26T09:03:43.738Z,6.40
2022-11-26T09:06:11.314Z,6.50
2022-11-26T09:08:59.816Z,6.50
2022-11-26T09:11:27.696Z,6.60
2022-11-26T09:13:54.976Z,6.70
2022-11-26T09:16:24.387Z,6.70
2022-11-26T09:18:52.065Z,6.80
2022-11-26T09:21:19.576Z,6.90
2022-11-26T09:23:46.312Z,6.80
2022-11-26T09:26:13.048Z,6.90
2022-11-26T09:28:39.846Z,6.90
2022-11-26T09:31:07.172Z,6.90
2022-11-26T09:33:33.960Z,6.90
2022-11-26T09:36:18.982Z,6.90
2022-11-26T09:38:48.156Z,7.00
2022-11-26T09:41:39.219Z,7.00
2022-11-26T09:44:45.738Z,7.10
2022-11-26T09:47:20.176Z,7.10
2022-11-26T09:50:15.437Z,7.10
2022-11-26T09:52:52.656Z,7.20
2022-11-26T09:55:33.399Z,7.20
2022-11-26T09:58:26.963Z,7.30
2022-11-26T10:00:57.790Z,7.30
2022-11-26T10:03:30.011Z,7.40
2022-11-26T10:06:05.874Z,7.40
2022-11-26T10:08:32.503Z,7.50
2022-11-26T10:11:24.604Z,7.60
2022-11-26T10:14:05.482Z,7.70
2022-11-26T10:16:56.872Z,7.80
2022-11-26T10:19:45.648Z,7.80
2022-11-26T10:22:52.734Z,7.90
2022-11-26T10:25:27.517Z,7.90
2022-11-26T10:27:56.164Z,8.00
2022-11-26T10:30:28.678Z,8.00
2022-11-26T10:33:00.605Z,8.00
2022-11-26T10:35:30.007Z,8.00
2022-11-26T10:37:59.793Z,8.00
2022-11-26T10:40:30.543Z,8.00
2022-11-26T10:43:05.982Z,8.10
2022-11-26T10:45:53.840Z,8.10
2022-11-26T10:48:33.363Z,8.10
2022-11-26T10:51:13.533Z,8.20
2022-11-26T10:54:00.962Z,8.20
2022-11-26T10:56:41.983Z,8.30
2022-11-26T10:59:45.965Z,8.30
2022-11-26T11:02:21.441Z,8.40
2022-11-26T11:04:51.693Z,8.50
2022-11-26T11:07:30.984Z,8.90
2022-11-26T11:10:09.882Z,8.90
2022-11-26T11:12:40.424Z,8.80
2022-11-26T11:15:24.297Z,8.90
2022-11-26T11:17:55.849Z,8.80
2022-11-26T11:20:42.780Z,8.70
2022-11-26T11:23:12.468Z,8.80
2022-11-26T11:25:41.869Z,8.70
2022-11-26T11:28:25.852Z,8.80
2022-11-26T11:31:03.637Z,8.90
2022-11-26T11:33:31.107Z,8.90
2022-11-26T11:36:11.858Z,8.90
2022-11-26T11:38:56.892Z,9.00
2022-11-26T11:41:26.541Z,9.00
2022-11-26T11:44:31.458Z,9.10
2022-11-26T11:47:20.924Z,9.20
2022-11-26T11:50:09.745Z,9.30
2022-11-26T11:52:58.166Z,9.40
2022-11-26T11:55:46.146Z,9.30
2022-11-26T11:58:12.853Z,9.30
2022-11-26T12:00:51.493Z,9.40
2022-11-26T12:03:39.167Z,9.40
2022-11-26T12:06:32.538Z,9.40
2022-11-26T12:09:13.409Z,9.40
2022-11-26T12:11:55.281Z,9.50
2022-11-26T12:14:42.793Z,9.50
2022-11-26T12:17:33.067Z,9.50
2022-11-26T12:20:38.353Z,9.50
2022-11-26T12:23:23.047Z,9.50
2022-11-26T12:26:06.212Z,9.50
2022-11-26T12:28:40.409Z,9.50
2022-11-26T12:31:15.634Z,9.50
2022-11-26T12:34:08.813Z,9.40
2022-11-26T12:36:56.881Z,9.40
2022-11-26T12:39:32.187Z,9.50
2022-11-26T12:42:16.803Z,9.50
2022-11-26T12:44:48.224Z,9.60
2022-11-26T12:47:25.456Z,9.60
2022-11-26T12:50:25.560Z,9.60
2022-11-26T12:53:17.341Z,9.60
2022-11-26T12:56:07.422Z,9.60
2022-11-26T12:58:59.243Z,9.60
2022-11-26T13:01:27.009Z,9.60
2022-11-26T13:04:14.392Z,9.60
2022-11-26T13:07:00.629Z,9.70
2022-11-26T13:10:01.746Z,9.70
2022-11-26T13:13:00.256Z,9.60
2022-11-26T13:15:48.246Z,9.60
2022-11-26T13:18:39.548Z,9.60
2022-11-26T13:21:34.208Z,9.60
2022-11-26T13:24:18.826Z,9.50
2022-11-26T13:27:23.978Z,9.50
2022-11-26T13:30:03.065Z,9.50
2022-11-26T13:33:03.623Z,9.60
2022-11-26T13:35:48.917Z,9.50
2022-11-26T13:38:23.860Z,9.50
2022-11-26T13:40:58.758Z,9.50
2022-11-26T13:43:37.073Z,9.50
2022-11-26T13:46:03.801Z,9.50
2022-11-26T13:48:44.300Z,9.60
2022-11-26T13:51:26.556Z,9.50
2022-11-26T13:54:16.194Z,9.60
2022-11-26T13:56:44.431Z,9.60
2022-11-26T13:59:20.072Z,9.70
2022-11-26T14:01:49.779Z,9.70
2022-11-26T14:04:22.260Z,9.70
2022-11-26T14:07:11.966Z,9.70
2022-11-26T14:09:44.609Z,9.70
2022-11-26T14:12:15.396Z,9.80
2022-11-26T14:14:43.426Z,9.80
2022-11-26T14:17:14.841Z,9.80
2022-11-26T14:19:41.495Z,9.80
2022-11-26T14:22:26.307Z,9.80
2022-11-26T14:24:58.950Z,9.80
2022-11-26T14:27:33.698Z,9.90
2022-11-26T14:30:06.254Z,9.80
2022-11-26T14:32:40.247Z,9.80
2022-11-26T14:35:34.860Z,9.80
2022-11-26T14:38:06.541Z,9.90
2022-11-26T14:40:38.031Z,9.80
2022-11-26T14:43:16.773Z,9.80
2022-11-26T14:46:02.454Z,9.80
2022-11-26T14:48:34.032Z,9.70
2022-11-26T14:51:04.697Z,9.70
2022-11-26T14:53:34.726Z,9.60
2022-11-26T14:56:02.962Z,9.50
2022-11-26T14:58:43.512Z,9.40
2022-11-26T15:01:15.985Z,9.40
2022-11-26T15:03:42.941Z,9.40
2022-11-26T15:06:30.043Z,9.40
2022-11-26T15:09:19.543Z,9.30
2022-11-26T15:11:57.891Z,9.20
2022-11-26T15:14:40.361Z,9.10
2022-11-26T15:17:10.516Z,9.10
2022-11-26T15:19:39.872Z,9.00
2022-11-26T15:22:18.338Z,9.00
2022-11-26T15:24:52.205Z,9.00
2022-11-26T15:27:34.868Z,8.90
2022-11-26T15:30:01.722Z,8.80
2022-11-26T15:32:31.153Z,8.80
2022-11-26T15:35:02.895Z,8.70
2022-11-26T15:37:29.775Z,8.70
2022-11-26T15:40:43.957Z,8.60
2022-11-26T15:43:19.604Z,8.60
2022-11-26T15:45:49.837Z,8.50
2022-11-26T15:48:50.841Z,8.50
2022-11-26T15:51:36.973Z,8.40
2022-11-26T15:54:20.359Z,8.30
2022-11-26T15:56:52.882Z,8.30
2022-11-26T15:59:21.158Z,8.30
2022-11-26T16:01:50.518Z,8.20
2022-11-26T16:04:38.495Z,8.20
2022-11-26T16:07:16.450Z,8.10
2022-11-26T16:09:44.307Z,8.10
2022-11-26T16:12:28.431Z,8.10
2022-11-26T16:15:18.654Z,8.10
2022-11-26T16:17:46.729Z,8.10
2022-11-26T16:20:18.634Z,8.10
2022-11-26T16:22:48.309Z,8.10
2022-11-26T16:25:22.033Z,8.10
2022-11-26T16:28:11.531Z,8.10
2022-11-26T16:30:40.102Z,8.10
2022-11-26T16:33:07.626Z,8.10
2022-11-26T16:35:49.906Z,8.10
2022-11-26T16:38:25.933Z,8.10
2022-11-26T16:40:55.671Z,8.10
2022-11-26T16:43:22.676Z,8.10
2022-11-26T16:45:53.107Z,8.10
2022-11-26T16:48:27.433Z,8.10
2022-11-26T16:50:55.637Z,8.10
2022-11-26T16:53:25.021Z,8.00
2022-11-26T16:55:53.497Z,8.00
2022-11-26T16:58:42.739Z,8.00
2022-11-26T17:01:11.759Z,8.00
2022-11-26T17:03:40.848Z,8.00
2022-11-26T17:06:14.281Z,8.00
2022-11-26T17:08:45.011Z,8.00
2022-11-26T17:11:14.791Z,8.00
2022-11-26T17:13:46.350Z,8.00
2022-11-26T17:16:19.217Z,8.00
2022-11-26T17:18:46.851Z,7.90
2022-11-26T17:21:13.993Z,7.90
2022-11-26T17:23:43.344Z,7.90
2022-11-26T17:26:23.616Z,7.80
2022-11-26T17:28:51.362Z,7.80
2022-11-26T17:31:18.706Z,7.80
2022-11-26T17:33:45.496Z,7.80
2022-11-26T17:36:20.955Z,7.70
2022-11-26T17:38:51.014Z,7.70
2022-11-26T17:41:17.880Z,7.70
2022-11-26T17:43:44.739Z,7.60
2022-11-26T17:46:20.737Z,7.60
2022-11-26T17:48:49.965Z,7.50
2022-11-26T17:51:20.706Z,7.50
2022-11-26T17:53:47.946Z,7.60
2022-11-26T17:56:19.821Z,7.60
2022-11-26T17:58:47.085Z,7.50
2022-11-26T18:01:17.242Z,7.50
2022-11-26T18:03:44.872Z,7.40
2022-11-26T18:06:21.896Z,7.40
2022-11-26T18:08:48.581Z,7.40
2022-11-26T18:11:16.458Z,7.40
2022-11-26T18:13:43.345Z,7.30
2022-11-26T18:16:10.145Z,7.30
2022-11-26T18:18:36.883Z,7.30
2022-11-26T18:21:03.696Z,7.30
2022-11-26T18:23:32.811Z,7.30
2022-11-26T18:26:01.995Z,7.30
2022-11-26T18:28:31.104Z,7.30
2022-11-26T18:30:59.352Z,7.20
2022-11-26T18:33:26.090Z,7.20
2022-11-26T18:35:52.868Z,7.20
2022-11-26T18:38:21.977Z,7.20
2022-11-26T18:40:59.268Z,7.20
2022-11-26T18:43:25.963Z,7.10
2022-11-26T18:45:55.122Z,7.10
2022-11-26T18:48:21.995Z,7.10
2022-11-26T18:51:00.637Z,7.10
2022-11-26T18:53:28.402Z,7.10
2022-11-26T18:55:58.826Z,7.10
2022-11-26T18:58:28.157Z,7.00
2022-11-26T19:00:58.445Z,7.00
2022-11-26T19:03:28.857Z,7.00
2022-11-26T19:05:55.930Z,7.10
2022-11-26T19:08:23.604Z,7.00
2022-11-26T19:10:50.458Z,7.00
2022-11-26T19:13:17.156Z,7.00
2022-11-26T19:15:45.012Z,7.00
2022-11-26T19:18:15.321Z,7.00
2022-11-26T19:20:49.863Z,6.90
2022-11-26T19:23:17.725Z,7.00
2022-11-26T19:25:45.631Z,7.00
2022-11-26T19:28:12.565Z,6.90
2022-11-26T19:30:41.666Z,6.90
2022-11-26T19:33:08.893Z,6.80
2022-11-26T19:35:39.943Z,6.70
2022-11-26T19:38:06.617Z,6.70
2022-11-26T19:40:33.399Z,6.70
2022-11-26T19:43:02.547Z,6.70
2022-11-26T19:45:29.258Z,6.70
2022-11-26T19:47:56.012Z,6.70
2022-11-26T19:50:22.689Z,6.70
2022-11-26T19:52:49.420Z,6.70
2022-11-26T19:55:18.724Z,6.80
2022-11-26T19:57:45.380Z,6.80
2022-11-26T20:00:15.137Z,6.80
2022-11-26T20:02:44.089Z,6.80
2022-11-26T20:05:11.245Z,6.80
2022-11-26T20:07:38.053Z,6.80
2022-11-26T20:10:10.609Z,6.70
2022-11-26T20:12:37.468Z,6.80
2022-11-26T20:15:04.546Z,6.70
2022-11-26T20:17:31.279Z,6.70
2022-11-26T20:19:58.037Z,6.70
2022-11-26T20:22:27.969Z,6.60
2022-11-26T20:24:54.893Z,6.60
2022-11-26T20:27:22.940Z,6.60
2022-11-26T20:29:52.108Z,6.50
2022-11-26T20:32:18.820Z,6.50
2022-11-26T20:34:49.207Z,6.50
2022-11-26T20:37:16.056Z,6.40
2022-11-26T20:39:42.933Z,6.40
2022-11-26T20:42:12.151Z,6.30
2022-11-26T20:44:38.854Z,6.30
2022-11-26T20:47:05.577Z,6.30
2022-11-26T20:49:36.027Z,6.30
2022-11-26T20:52:04.850Z,6.20
2022-11-26T20:54:31.792Z,6.30
2022-11-26T20:56:58.719Z,6.20
2022-11-26T20:59:25.644Z,6.20
2022-11-26T21:01:52.728Z,6.20
2022-11-26T21:04:21.673Z,6.20
2022-11-26T21:06:48.460Z,6.20
2022-11-26T21:09:17.637Z,6.20
2022-11-26T21:11:46.545Z,6.10
2022-11-26T21:14:15.168Z,6.10
2022-11-26T21:16:42.297Z,6.10
2022-11-26T21:19:12.120Z,6.10
2022-11-26T21:21:41.244Z,6.00
2022-11-26T21:24:12.655Z,6.00
2022-11-26T21:26:39.413Z,6.00
2022-11-26T21:29:06.311Z,6.00
2022-11-26T21:31:35.716Z,5.90
2022-11-26T21:34:05.257Z,5.90
2022-11-26T21:36:34.176Z,5.90
2022-11-26T21:39:04.290Z,6.00
2022-11-26T21:41:33.549Z,6.00
2022-11-26T21:44:04.005Z,6.00
2022-11-26T21:46:38.650Z,5.90
2022-11-26T21:49:06.433Z,5.90
2022-11-26T21:51:33.224Z,6.00
2022-11-26T21:53:59.960Z,6.00
2022-11-26T21:56:29.043Z,6.00
2022-11-26T21:58:57.835Z,6.00
2022-11-26T22:01:30.694Z,6.00
2022-11-26T22:04:04.738Z,6.00
2022-11-26T22:06:31.648Z,6.00
2022-11-26T22:08:58.757Z,6.00
2022-11-26T22:11:28.532Z,6.00
2022-11-26T22:13:55.525Z,5.90
2022-11-26T22:16:23.913Z,5.90
2022-11-26T22:18:52.067Z,5.90
2022-11-26T22:21:31.033Z,5.90
2022-11-26T22:24:01.430Z,6.00
2022-11-26T22:26:29.470Z,6.00
2022-11-26T22:28:56.626Z,6.00
2022-11-26T22:31:34.882Z,6.00
2022-11-26T22:34:18.094Z,6.00
2022-11-26T22:36:45.434Z,6.00
2022-11-26T22:39:14.820Z,6.00
2022-11-26T22:41:44.795Z,6.10
2022-11-26T22:44:12.216Z,6.10
2022-11-26T22:46:38.941Z,6.10
2022-11-26T22:49:12.843Z,6.10
2022-11-26T22:51:40.005Z,6.20
2022-11-26T22:54:08.084Z,6.20
2022-11-26T22:56:37.720Z,6.20
2022-11-26T22:59:06.071Z,6.30
2022-11-26T23:01:34.179Z,6.30
2022-11-26T23:04:03.654Z,6.30
2022-11-26T23:06:32.492Z,6.20
2022-11-26T23:09:00.535Z,6.30
2022-11-26T23:11:30.932Z,6.30
2022-11-26T23:13:57.898Z,6.30
2022-11-26T23:16:26.330Z,6.30
2022-11-26T23:18:57.075Z,6.20
2022-11-26T23:21:29.659Z,6.20
2022-11-26T23:23:59.036Z,6.20
2022-11-26T23:26:30.582Z,6.20
2022-11-26T23:28:59.062Z,6.20
2022-11-26T23:31:32.657Z,6.20
2022-11-26T23:34:00.063Z,6.30
2022-11-26T23:36:30.537Z,6.30
2022-11-26T23:39:00.036Z,6.30
2022-11-26T23:41:29.300Z,6.20
2022-11-26T23:43:58.560Z,6.20
2022-11-26T23:46:27.856Z,6.30
2022-11-26T23:48:57.728Z,6.30
2022-11-26T23:51:30.730Z,6.20
2022-11-26T23:53:57.877Z,6.20
2022-11-26T23:56:28.389Z,6.20
2022-11-26T23:58:57.729Z,6.20
